Terminal Aerodrome Forecast
Issued by NWS

Home | Current Version | Previous Version | Text Only | Print | Product List | Glossary On
Versions: 1 2 3 4 5 6 7 8 9 10 11 12 13 14 15 16 17 18 19 20 21
441
FTUS46 KEKA 241640 AAA
TAFUKI
TAF AMD
KUKI 241640Z 2417/2512 32006KT P6SM SCT018 SCT035
      TEMPO 2417/2419 BKN035
     FM241900 34006KT P6SM SCT035 SCT100
     FM242300 32005KT P6SM SCT100
     FM250700 00000KT P6SM BKN250=

USA.gov is the U.S. government's official web portal to all federal, state and local government web resources and services.